sensor_id;sensor_type;location;lat;lon;timestamp;P1;durP1;ratioP1;P2;durP2;ratioP2
50769;SDS011;36740;48.698;11.472;2023-09-12T00:02:00;27.50;;;9.93;;
50769;SDS011;36740;48.698;11.472;2023-09-12T00:04:25;18.43;;;12.80;;
50769;SDS011;36740;48.698;11.472;2023-09-12T00:06:50;21.38;;;11.40;;
50769;SDS011;36740;48.698;11.472;2023-09-12T00:09:15;24.50;;;14.63;;
50769;SDS011;36740;48.698;11.472;2023-09-12T00:11:41;22.02;;;11.82;;
50769;SDS011;36740;48.698;11.472;2023-09-12T00:14:08;20.57;;;12.20;;
50769;SDS011;36740;48.698;11.472;2023-09-12T00:16:33;19.20;;;12.00;;
50769;SDS011;36740;48.698;11.472;2023-09-12T00:18:58;14.63;;;10.00;;
50769;SDS011;36740;48.698;11.472;2023-09-12T00:21:24;19.57;;;12.23;;
50769;SDS011;36740;48.698;11.472;2023-09-12T00:23:49;15.73;;;11.77;;
50769;SDS011;36740;48.698;11.472;2023-09-12T00:26:16;21.88;;;11.35;;
50769;SDS011;36740;48.698;11.472;2023-09-12T00:28:41;16.88;;;11.77;;
50769;SDS011;36740;48.698;11.472;2023-09-12T00:31:06;18.92;;;11.63;;
50769;SDS011;36740;48.698;11.472;2023-09-12T00:33:32;18.92;;;11.00;;
50769;SDS011;36740;48.698;11.472;2023-09-12T00:35:58;15.82;;;10.30;;
50769;SDS011;36740;48.698;11.472;2023-09-12T00:38:23;15.13;;;9.40;;
50769;SDS011;36740;48.698;11.472;2023-09-12T00:40:48;12.38;;;7.95;;
50769;SDS011;36740;48.698;11.472;2023-09-12T00:43:15;15.68;;;9.73;;
50769;SDS011;36740;48.698;11.472;2023-09-12T00:45:40;15.20;;;9.48;;
50769;SDS011;36740;48.698;11.472;2023-09-12T00:48:06;15.02;;;9.70;;
50769;SDS011;36740;48.698;11.472;2023-09-12T00:50:31;16.23;;;10.10;;
50769;SDS011;36740;48.698;11.472;2023-09-12T00:52:57;13.65;;;9.27;;
50769;SDS011;36740;48.698;11.472;2023-09-12T00:55:23;16.77;;;9.93;;
50769;SDS011;36740;48.698;11.472;2023-09-12T00:57:49;18.25;;;10.48;;
50769;SDS011;36740;48.698;11.472;2023-09-12T01:00:14;18.48;;;11.25;;
50769;SDS011;36740;48.698;11.472;2023-09-12T01:02:41;15.73;;;11.23;;
50769;SDS011;36740;48.698;11.472;2023-09-12T01:05:06;11.98;;;8.30;;
50769;SDS011;36740;48.698;11.472;2023-09-12T01:07:32;15.50;;;11.63;;
50769;SDS011;36740;48.698;11.472;2023-09-12T01:09:57;19.65;;;11.95;;
50769;SDS011;36740;48.698;11.472;2023-09-12T01:12:23;14.63;;;10.70;;
50769;SDS011;36740;48.698;11.472;2023-09-12T01:14:51;17.13;;;11.90;;
50769;SDS011;36740;48.698;11.472;2023-09-12T01:17:17;25.17;;;13.77;;
50769;SDS011;36740;48.698;11.472;2023-09-12T01:19:42;16.77;;;11.10;;
50769;SDS011;36740;48.698;11.472;2023-09-12T01:27:39;21.25;;;12.40;;
50769;SDS011;36740;48.698;11.472;2023-09-12T01:30:06;19.83;;;9.93;;
50769;SDS011;36740;48.698;11.472;2023-09-12T01:32:32;15.68;;;10.40;;
50769;SDS011;36740;48.698;11.472;2023-09-12T01:34:58;22.05;;;13.82;;
50769;SDS011;36740;48.698;11.472;2023-09-12T01:37:23;14.55;;;11.40;;
50769;SDS011;36740;48.698;11.472;2023-09-12T01:39:49;19.00;;;11.88;;
50769;SDS011;36740;48.698;11.472;2023-09-12T01:42:15;17.30;;;10.73;;
50769;SDS011;36740;48.698;11.472;2023-09-12T01:44:41;15.13;;;9.35;;
50769;SDS011;36740;48.698;11.472;2023-09-12T01:47:08;19.42;;;9.57;;
50769;SDS011;36740;48.698;11.472;2023-09-12T01:49:34;21.80;;;11.90;;
50769;SDS011;36740;48.698;11.472;2023-09-12T01:52:00;14.38;;;10.32;;
50769;SDS011;36740;48.698;11.472;2023-09-12T01:54:26;15.07;;;10.60;;
50769;SDS011;36740;48.698;11.472;2023-09-12T01:56:52;19.17;;;12.15;;
50769;SDS011;36740;48.698;11.472;2023-09-12T01:59:19;16.80;;;11.43;;
50769;SDS011;36740;48.698;11.472;2023-09-12T02:01:45;17.90;;;12.15;;
50769;SDS011;36740;48.698;11.472;2023-09-12T02:04:10;17.97;;;11.43;;
50769;SDS011;36740;48.698;11.472;2023-09-12T02:06:36;19.90;;;12.07;;
50769;SDS011;36740;48.698;11.472;2023-09-12T02:09:01;15.85;;;11.13;;
50769;SDS011;36740;48.698;11.472;2023-09-12T02:11:27;24.88;;;11.93;;
50769;SDS011;36740;48.698;11.472;2023-09-12T02:13:52;14.93;;;10.07;;
50769;SDS011;36740;48.698;11.472;2023-09-12T02:16:17;15.15;;;10.70;;
50769;SDS011;36740;48.698;11.472;2023-09-12T02:18:42;15.50;;;10.37;;
50769;SDS011;36740;48.698;11.472;2023-09-12T02:21:08;15.97;;;11.37;;
50769;SDS011;36740;48.698;11.472;2023-09-12T02:23:33;17.30;;;10.95;;
50769;SDS011;36740;48.698;11.472;2023-09-12T02:25:58;14.68;;;10.13;;
50769;SDS011;36740;48.698;11.472;2023-09-12T02:28:23;15.73;;;10.97;;
50769;SDS011;36740;48.698;11.472;2023-09-12T02:30:49;16.08;;;11.63;;
50769;SDS011;36740;48.698;11.472;2023-09-12T02:33:15;14.52;;;10.30;;
50769;SDS011;36740;48.698;11.472;2023-09-12T02:35:40;16.88;;;12.05;;
50769;SDS011;36740;48.698;11.472;2023-09-12T02:38:05;19.17;;;12.43;;
50769;SDS011;36740;48.698;11.472;2023-09-12T02:40:30;16.25;;;9.60;;
50769;SDS011;36740;48.698;11.472;2023-09-12T02:42:56;17.08;;;11.25;;
50769;SDS011;36740;48.698;11.472;2023-09-12T02:45:21;15.80;;;10.40;;
50769;SDS011;36740;48.698;11.472;2023-09-12T02:47:48;16.37;;;11.03;;
50769;SDS011;36740;48.698;11.472;2023-09-12T02:50:13;18.92;;;11.98;;
50769;SDS011;36740;48.698;11.472;2023-09-12T02:52:41;21.02;;;12.18;;
50769;SDS011;36740;48.698;11.472;2023-09-12T02:55:06;17.45;;;12.38;;
50769;SDS011;36740;48.698;11.472;2023-09-12T02:57:32;19.42;;;11.77;;
50769;SDS011;36740;48.698;11.472;2023-09-12T02:59:57;18.00;;;11.98;;
50769;SDS011;36740;48.698;11.472;2023-09-12T03:02:22;18.00;;;12.60;;
50769;SDS011;36740;48.698;11.472;2023-09-12T03:04:53;19.63;;;12.80;;
50769;SDS011;36740;48.698;11.472;2023-09-12T03:09:43;13.73;;;10.40;;
50769;SDS011;36740;48.698;11.472;2023-09-12T03:12:08;18.15;;;10.15;;
50769;SDS011;36740;48.698;11.472;2023-09-12T03:14:34;22.35;;;13.27;;
50769;SDS011;36740;48.698;11.472;2023-09-12T03:16:59;16.73;;;10.90;;
50769;SDS011;36740;48.698;11.472;2023-09-12T03:19:24;20.17;;;12.47;;
50769;SDS011;36740;48.698;11.472;2023-09-12T03:21:49;18.02;;;12.45;;
50769;SDS011;36740;48.698;11.472;2023-09-12T03:24:15;17.95;;;11.68;;
50769;SDS011;36740;48.698;11.472;2023-09-12T03:26:43;15.23;;;11.50;;
50769;SDS011;36740;48.698;11.472;2023-09-12T03:29:08;21.02;;;12.65;;
50769;SDS011;36740;48.698;11.472;2023-09-12T03:31:33;16.57;;;10.10;;
50769;SDS011;36740;48.698;11.472;2023-09-12T03:34:00;18.40;;;11.93;;
50769;SDS011;36740;48.698;11.472;2023-09-12T03:36:25;16.73;;;11.73;;
50769;SDS011;36740;48.698;11.472;2023-09-12T03:38:50;16.23;;;10.73;;
50769;SDS011;36740;48.698;11.472;2023-09-12T03:41:16;16.90;;;11.07;;
50769;SDS011;36740;48.698;11.472;2023-09-12T03:43:42;15.35;;;10.85;;
50769;SDS011;36740;48.698;11.472;2023-09-12T03:46:08;17.20;;;10.55;;
50769;SDS011;36740;48.698;11.472;2023-09-12T03:48:33;15.30;;;10.40;;
50769;SDS011;36740;48.698;11.472;2023-09-12T03:51:01;17.80;;;10.73;;
50769;SDS011;36740;48.698;11.472;2023-09-12T03:53:31;17.90;;;10.98;;
50769;SDS011;36740;48.698;11.472;2023-09-12T03:58:21;17.38;;;10.75;;
50769;SDS011;36740;48.698;11.472;2023-09-12T04:00:47;19.35;;;14.25;;
50769;SDS011;36740;48.698;11.472;2023-09-12T04:03:12;18.40;;;13.20;;
50769;SDS011;36740;48.698;11.472;2023-09-12T04:05:37;16.92;;;11.50;;
50769;SDS011;36740;48.698;11.472;2023-09-12T04:08:03;26.23;;;14.83;;
50769;SDS011;36740;48.698;11.472;2023-09-12T04:10:28;17.90;;;12.60;;
50769;SDS011;36740;48.698;11.472;2023-09-12T04:12:53;16.48;;;12.60;;
50769;SDS011;36740;48.698;11.472;2023-09-12T04:15:18;19.40;;;13.47;;
50769;SDS011;36740;48.698;11.472;2023-09-12T04:17:44;21.38;;;11.90;;
50769;SDS011;36740;48.698;11.472;2023-09-12T04:20:09;18.00;;;12.43;;
50769;SDS011;36740;48.698;11.472;2023-09-12T04:22:39;20.20;;;13.47;;
50769;SDS011;36740;48.698;11.472;2023-09-12T04:25:04;18.08;;;11.68;;
50769;SDS011;36740;48.698;11.472;2023-09-12T04:27:29;20.40;;;13.55;;
50769;SDS011;36740;48.698;11.472;2023-09-12T04:29:55;17.00;;;12.32;;
50769;SDS011;36740;48.698;11.472;2023-09-12T04:32:20;14.97;;;11.23;;
50769;SDS011;36740;48.698;11.472;2023-09-12T04:34:48;20.17;;;13.18;;
50769;SDS011;36740;48.698;11.472;2023-09-12T04:37:14;16.83;;;12.82;;
50769;SDS011;36740;48.698;11.472;2023-09-12T04:39:39;16.73;;;13.10;;
50769;SDS011;36740;48.698;11.472;2023-09-12T04:42:06;18.90;;;12.20;;
50769;SDS011;36740;48.698;11.472;2023-09-12T04:44:35;24.50;;;12.40;;
50769;SDS011;36740;48.698;11.472;2023-09-12T04:47:15;19.88;;;12.30;;
50769;SDS011;36740;48.698;11.472;2023-09-12T04:49:41;26.15;;;13.15;;
50769;SDS011;36740;48.698;11.472;2023-09-12T04:52:07;21.75;;;12.82;;
50769;SDS011;36740;48.698;11.472;2023-09-12T04:54:33;28.07;;;14.10;;
50769;SDS011;36740;48.698;11.472;2023-09-12T04:56:58;17.73;;;12.23;;
50769;SDS011;36740;48.698;11.472;2023-09-12T04:59:24;17.33;;;12.32;;
50769;SDS011;36740;48.698;11.472;2023-09-12T05:01:49;19.10;;;11.57;;
50769;SDS011;36740;48.698;11.472;2023-09-12T05:04:15;18.67;;;13.30;;
50769;SDS011;36740;48.698;11.472;2023-09-12T05:09:28;17.50;;;10.90;;
50769;SDS011;36740;48.698;11.472;2023-09-12T05:11:58;17.47;;;10.93;;
50769;SDS011;36740;48.698;11.472;2023-09-12T05:14:24;17.15;;;10.85;;
50769;SDS011;36740;48.698;11.472;2023-09-12T05:16:49;16.35;;;10.45;;
50769;SDS011;36740;48.698;11.472;2023-09-12T05:19:14;16.90;;;11.55;;
50769;SDS011;36740;48.698;11.472;2023-09-12T05:21:40;23.13;;;13.45;;
50769;SDS011;36740;48.698;11.472;2023-09-12T05:24:05;18.02;;;10.82;;
50769;SDS011;36740;48.698;11.472;2023-09-12T05:26:30;25.13;;;14.63;;
50769;SDS011;36740;48.698;11.472;2023-09-12T05:28:56;24.17;;;15.82;;
50769;SDS011;36740;48.698;11.472;2023-09-12T05:31:21;22.52;;;15.25;;
50769;SDS011;36740;48.698;11.472;2023-09-12T05:33:46;19.27;;;13.13;;
50769;SDS011;36740;48.698;11.472;2023-09-12T05:36:12;18.52;;;13.38;;
50769;SDS011;36740;48.698;11.472;2023-09-12T05:38:37;18.00;;;10.65;;
50769;SDS011;36740;48.698;11.472;2023-09-12T05:41:02;19.05;;;11.93;;
50769;SDS011;36740;48.698;11.472;2023-09-12T05:43:28;22.30;;;12.30;;
50769;SDS011;36740;48.698;11.472;2023-09-12T05:45:53;18.80;;;12.37;;
50769;SDS011;36740;48.698;11.472;2023-09-12T05:48:18;15.07;;;10.10;;
50769;SDS011;36740;48.698;11.472;2023-09-12T05:50:44;13.23;;;9.30;;
50769;SDS011;36740;48.698;11.472;2023-09-12T05:53:09;24.05;;;11.60;;
50769;SDS011;36740;48.698;11.472;2023-09-12T05:55:34;24.83;;;13.17;;
50769;SDS011;36740;48.698;11.472;2023-09-12T05:58:00;17.42;;;11.95;;
50769;SDS011;36740;48.698;11.472;2023-09-12T06:00:25;20.98;;;11.88;;
50769;SDS011;36740;48.698;11.472;2023-09-12T06:02:51;15.93;;;12.05;;
50769;SDS011;36740;48.698;11.472;2023-09-12T06:05:16;18.92;;;11.88;;
50769;SDS011;36740;48.698;11.472;2023-09-12T06:07:44;22.33;;;11.60;;
50769;SDS011;36740;48.698;11.472;2023-09-12T06:12:36;18.20;;;11.25;;
50769;SDS011;36740;48.698;11.472;2023-09-12T06:15:02;19.65;;;13.50;;
50769;SDS011;36740;48.698;11.472;2023-09-12T06:17:31;19.33;;;10.82;;
50769;SDS011;36740;48.698;11.472;2023-09-12T06:19:56;16.70;;;10.23;;
50769;SDS011;36740;48.698;11.472;2023-09-12T06:22:22;13.65;;;9.25;;
50769;SDS011;36740;48.698;11.472;2023-09-12T06:24:48;17.15;;;10.57;;
50769;SDS011;36740;48.698;11.472;2023-09-12T06:27:13;15.65;;;9.20;;
50769;SDS011;36740;48.698;11.472;2023-09-12T06:29:45;14.88;;;10.90;;
50769;SDS011;36740;48.698;11.472;2023-09-12T06:32:12;12.40;;;9.45;;
50769;SDS011;36740;48.698;11.472;2023-09-12T06:34:37;20.60;;;11.20;;
50769;SDS011;36740;48.698;11.472;2023-09-12T06:37:03;14.10;;;8.23;;
50769;SDS011;36740;48.698;11.472;2023-09-12T06:39:29;16.95;;;9.68;;
50769;SDS011;36740;48.698;11.472;2023-09-12T06:41:54;26.42;;;9.30;;
50769;SDS011;36740;48.698;11.472;2023-09-12T06:44:19;17.97;;;10.47;;
50769;SDS011;36740;48.698;11.472;2023-09-12T06:46:45;12.50;;;9.00;;
50769;SDS011;36740;48.698;11.472;2023-09-12T06:49:13;19.65;;;10.35;;
50769;SDS011;36740;48.698;11.472;2023-09-12T06:51:38;14.53;;;9.30;;
50769;SDS011;36740;48.698;11.472;2023-09-12T06:54:03;16.07;;;10.30;;
50769;SDS011;36740;48.698;11.472;2023-09-12T06:56:29;28.58;;;11.25;;
50769;SDS011;36740;48.698;11.472;2023-09-12T06:58:54;24.73;;;10.47;;
50769;SDS011;36740;48.698;11.472;2023-09-12T07:01:20;14.85;;;9.65;;
50769;SDS011;36740;48.698;11.472;2023-09-12T07:03:45;18.83;;;10.77;;
50769;SDS011;36740;48.698;11.472;2023-09-12T07:06:10;13.93;;;8.07;;
50769;SDS011;36740;48.698;11.472;2023-09-12T07:08:36;15.10;;;10.48;;
50769;SDS011;36740;48.698;11.472;2023-09-12T07:11:01;12.90;;;8.35;;
50769;SDS011;36740;48.698;11.472;2023-09-12T07:13:31;13.17;;;8.13;;
50769;SDS011;36740;48.698;11.472;2023-09-12T07:15:56;16.98;;;9.77;;
50769;SDS011;36740;48.698;11.472;2023-09-12T07:18:22;16.13;;;8.98;;
50769;SDS011;36740;48.698;11.472;2023-09-12T07:20:54;12.93;;;8.25;;
50769;SDS011;36740;48.698;11.472;2023-09-12T07:23:21;13.88;;;9.18;;
50769;SDS011;36740;48.698;11.472;2023-09-12T07:25:46;14.40;;;9.80;;
50769;SDS011;36740;48.698;11.472;2023-09-12T07:28:11;18.47;;;11.00;;
50769;SDS011;36740;48.698;11.472;2023-09-12T07:30:37;16.67;;;9.93;;
50769;SDS011;36740;48.698;11.472;2023-09-12T07:33:03;13.18;;;9.05;;
50769;SDS011;36740;48.698;11.472;2023-09-12T07:35:29;15.15;;;10.20;;
50769;SDS011;36740;48.698;11.472;2023-09-12T07:37:55;12.48;;;9.35;;
50769;SDS011;36740;48.698;11.472;2023-09-12T07:40:23;15.18;;;9.75;;
50769;SDS011;36740;48.698;11.472;2023-09-12T07:42:49;13.65;;;8.25;;
50769;SDS011;36740;48.698;11.472;2023-09-12T07:45:14;17.60;;;10.40;;
50769;SDS011;36740;48.698;11.472;2023-09-12T07:47:39;15.03;;;8.57;;
50769;SDS011;36740;48.698;11.472;2023-09-12T07:50:05;13.67;;;9.53;;
50769;SDS011;36740;48.698;11.472;2023-09-12T07:52:31;14.93;;;8.30;;
50769;SDS011;36740;48.698;11.472;2023-09-12T07:55:00;13.00;;;8.88;;
50769;SDS011;36740;48.698;11.472;2023-09-12T07:57:25;16.70;;;10.30;;
50769;SDS011;36740;48.698;11.472;2023-09-12T07:59:51;17.30;;;8.33;;
50769;SDS011;36740;48.698;11.472;2023-09-12T08:02:21;12.80;;;8.83;;
50769;SDS011;36740;48.698;11.472;2023-09-12T08:04:46;18.67;;;10.05;;
50769;SDS011;36740;48.698;11.472;2023-09-12T08:07:14;19.05;;;8.90;;
50769;SDS011;36740;48.698;11.472;2023-09-12T08:09:56;18.75;;;9.95;;
50769;SDS011;36740;48.698;11.472;2023-09-12T08:12:26;28.48;;;8.85;;
50769;SDS011;36740;48.698;11.472;2023-09-12T08:14:52;16.50;;;9.13;;
50769;SDS011;36740;48.698;11.472;2023-09-12T08:17:17;13.05;;;6.88;;
50769;SDS011;36740;48.698;11.472;2023-09-12T08:19:43;14.52;;;9.00;;
50769;SDS011;36740;48.698;11.472;2023-09-12T08:22:09;16.27;;;8.55;;
50769;SDS011;36740;48.698;11.472;2023-09-12T08:24:34;12.73;;;8.05;;
50769;SDS011;36740;48.698;11.472;2023-09-12T08:27:00;15.93;;;9.20;;
50769;SDS011;36740;48.698;11.472;2023-09-12T08:29:27;17.10;;;8.88;;
50769;SDS011;36740;48.698;11.472;2023-09-12T08:31:52;12.45;;;7.60;;
50769;SDS011;36740;48.698;11.472;2023-09-12T08:34:18;12.85;;;9.80;;
50769;SDS011;36740;48.698;11.472;2023-09-12T08:36:43;14.48;;;9.55;;
50769;SDS011;36740;48.698;11.472;2023-09-12T08:39:13;16.10;;;8.70;;
50769;SDS011;36740;48.698;11.472;2023-09-12T08:41:38;15.73;;;9.20;;
50769;SDS011;36740;48.698;11.472;2023-09-12T08:44:04;18.67;;;11.63;;
50769;SDS011;36740;48.698;11.472;2023-09-12T08:46:31;21.80;;;9.55;;
50769;SDS011;36740;48.698;11.472;2023-09-12T08:48:56;18.80;;;10.73;;
50769;SDS011;36740;48.698;11.472;2023-09-12T08:51:22;15.60;;;10.10;;
50769;SDS011;36740;48.698;11.472;2023-09-12T08:53:49;14.43;;;8.98;;
50769;SDS011;36740;48.698;11.472;2023-09-12T08:56:14;14.70;;;10.13;;
50769;SDS011;36740;48.698;11.472;2023-09-12T08:58:39;24.47;;;12.43;;
50769;SDS011;36740;48.698;11.472;2023-09-12T09:01:05;21.58;;;10.48;;
50769;SDS011;36740;48.698;11.472;2023-09-12T09:03:31;20.27;;;9.82;;
50769;SDS011;36740;48.698;11.472;2023-09-12T09:05:57;17.13;;;11.02;;
50769;SDS011;36740;48.698;11.472;2023-09-12T09:08:23;18.80;;;10.93;;
50769;SDS011;36740;48.698;11.472;2023-09-12T09:10:58;23.27;;;12.65;;
50769;SDS011;36740;48.698;11.472;2023-09-12T09:13:26;19.13;;;11.93;;
50769;SDS011;36740;48.698;11.472;2023-09-12T09:21:24;16.48;;;10.13;;
50769;SDS011;36740;48.698;11.472;2023-09-12T09:23:50;21.33;;;13.13;;
50769;SDS011;36740;48.698;11.472;2023-09-12T09:26:16;17.00;;;10.00;;
50769;SDS011;36740;48.698;11.472;2023-09-12T09:28:41;18.83;;;11.77;;
50769;SDS011;36740;48.698;11.472;2023-09-12T09:31:10;18.63;;;12.98;;
50769;SDS011;36740;48.698;11.472;2023-09-12T09:33:36;19.52;;;12.20;;
50769;SDS011;36740;48.698;11.472;2023-09-12T09:36:05;18.05;;;12.93;;
50769;SDS011;36740;48.698;11.472;2023-09-12T09:38:30;21.00;;;10.30;;
50769;SDS011;36740;48.698;11.472;2023-09-12T09:40:56;21.63;;;11.00;;
50769;SDS011;36740;48.698;11.472;2023-09-12T09:43:21;15.95;;;9.88;;
50769;SDS011;36740;48.698;11.472;2023-09-12T09:45:47;15.77;;;10.57;;
50769;SDS011;36740;48.698;11.472;2023-09-12T09:48:22;16.58;;;11.65;;
50769;SDS011;36740;48.698;11.472;2023-09-12T09:50:48;15.93;;;9.82;;
50769;SDS011;36740;48.698;11.472;2023-09-12T09:53:13;15.55;;;10.57;;
50769;SDS011;36740;48.698;11.472;2023-09-12T09:55:42;21.67;;;11.77;;
50769;SDS011;36740;48.698;11.472;2023-09-12T09:58:07;14.25;;;9.70;;
50769;SDS011;36740;48.698;11.472;2023-09-12T10:00:33;14.95;;;9.65;;
50769;SDS011;36740;48.698;11.472;2023-09-12T10:02:59;14.57;;;10.75;;
50769;SDS011;36740;48.698;11.472;2023-09-12T10:05:26;18.25;;;10.90;;
50769;SDS011;36740;48.698;11.472;2023-09-12T10:07:52;16.90;;;10.60;;
50769;SDS011;36740;48.698;11.472;2023-09-12T10:10:20;14.55;;;10.60;;
50769;SDS011;36740;48.698;11.472;2023-09-12T10:12:51;18.15;;;10.57;;
50769;SDS011;36740;48.698;11.472;2023-09-12T10:15:19;17.23;;;10.35;;
50769;SDS011;36740;48.698;11.472;2023-09-12T10:17:46;15.82;;;10.30;;
50769;SDS011;36740;48.698;11.472;2023-09-12T10:20:15;14.80;;;10.05;;
50769;SDS011;36740;48.698;11.472;2023-09-12T10:22:43;16.15;;;9.27;;
50769;SDS011;36740;48.698;11.472;2023-09-12T10:25:11;14.27;;;8.48;;
50769;SDS011;36740;48.698;11.472;2023-09-12T10:27:37;14.52;;;9.10;;
50769;SDS011;36740;48.698;11.472;2023-09-12T10:30:02;13.60;;;9.70;;
50769;SDS011;36740;48.698;11.472;2023-09-12T10:32:30;14.73;;;9.70;;
50769;SDS011;36740;48.698;11.472;2023-09-12T10:34:58;15.00;;;10.05;;
50769;SDS011;36740;48.698;11.472;2023-09-12T10:37:23;12.55;;;8.13;;
50769;SDS011;36740;48.698;11.472;2023-09-12T10:39:50;16.95;;;9.60;;
50769;SDS011;36740;48.698;11.472;2023-09-12T10:42:17;13.95;;;9.63;;
50769;SDS011;36740;48.698;11.472;2023-09-12T10:44:45;17.13;;;9.35;;
50769;SDS011;36740;48.698;11.472;2023-09-12T10:47:11;14.02;;;9.10;;
50769;SDS011;36740;48.698;11.472;2023-09-12T10:49:37;12.52;;;9.18;;
50769;SDS011;36740;48.698;11.472;2023-09-12T10:52:02;10.48;;;7.00;;
50769;SDS011;36740;48.698;11.472;2023-09-12T10:54:40;16.17;;;8.65;;
50769;SDS011;36740;48.698;11.472;2023-09-12T10:57:10;11.93;;;8.13;;
50769;SDS011;36740;48.698;11.472;2023-09-12T11:00:23;11.98;;;7.65;;
50769;SDS011;36740;48.698;11.472;2023-09-12T11:02:32;10.52;;;7.28;;
50769;SDS011;36740;48.698;11.472;2023-09-12T11:04:58;15.63;;;8.93;;
50769;SDS011;36740;48.698;11.472;2023-09-12T11:07:45;14.60;;;8.07;;
50769;SDS011;36740;48.698;11.472;2023-09-12T11:12:39;13.55;;;8.20;;
50769;SDS011;36740;48.698;11.472;2023-09-12T11:15:05;11.75;;;7.03;;
50769;SDS011;36740;48.698;11.472;2023-09-12T11:17:35;12.45;;;7.95;;
50769;SDS011;36740;48.698;11.472;2023-09-12T11:20:02;10.27;;;7.43;;
50769;SDS011;36740;48.698;11.472;2023-09-12T11:22:35;9.13;;;5.57;;
50769;SDS011;36740;48.698;11.472;2023-09-12T11:25:01;9.63;;;6.30;;
50769;SDS011;36740;48.698;11.472;2023-09-12T11:30:14;10.57;;;5.45;;
50769;SDS011;36740;48.698;11.472;2023-09-12T11:32:46;10.00;;;6.28;;
50769;SDS011;36740;48.698;11.472;2023-09-12T11:35:13;10.27;;;6.40;;
50769;SDS011;36740;48.698;11.472;2023-09-12T11:37:38;12.57;;;7.60;;
50769;SDS011;36740;48.698;11.472;2023-09-12T11:42:39;13.85;;;6.97;;
50769;SDS011;36740;48.698;11.472;2023-09-12T11:45:07;10.07;;;6.20;;
50769;SDS011;36740;48.698;11.472;2023-09-12T11:47:44;11.70;;;6.37;;
50769;SDS011;36740;48.698;11.472;2023-09-12T11:52:57;9.38;;;6.00;;
50769;SDS011;36740;48.698;11.472;2023-09-12T11:55:23;10.05;;;6.70;;
50769;SDS011;36740;48.698;11.472;2023-09-12T11:57:48;11.77;;;6.78;;
50769;SDS011;36740;48.698;11.472;2023-09-12T12:00:14;10.80;;;5.63;;
50769;SDS011;36740;48.698;11.472;2023-09-12T12:02:39;9.23;;;5.63;;
50769;SDS011;36740;48.698;11.472;2023-09-12T12:05:04;9.02;;;4.97;;
50769;SDS011;36740;48.698;11.472;2023-09-12T12:07:30;6.78;;;4.45;;
50769;SDS011;36740;48.698;11.472;2023-09-12T12:09:56;9.43;;;6.47;;
50769;SDS011;36740;48.698;11.472;2023-09-12T12:12:21;7.75;;;4.88;;
50769;SDS011;36740;48.698;11.472;2023-09-12T12:14:46;9.40;;;5.40;;
50769;SDS011;36740;48.698;11.472;2023-09-12T12:17:19;10.32;;;6.07;;
50769;SDS011;36740;48.698;11.472;2023-09-12T12:19:45;10.27;;;5.20;;
50769;SDS011;36740;48.698;11.472;2023-09-12T12:22:10;11.23;;;7.10;;
50769;SDS011;36740;48.698;11.472;2023-09-12T12:24:39;13.13;;;6.77;;
50769;SDS011;36740;48.698;11.472;2023-09-12T12:29:30;11.10;;;5.77;;
50769;SDS011;36740;48.698;11.472;2023-09-12T12:31:59;11.50;;;7.30;;
50769;SDS011;36740;48.698;11.472;2023-09-12T12:34:25;16.30;;;7.60;;
50769;SDS011;36740;48.698;11.472;2023-09-12T12:36:51;9.88;;;6.03;;
50769;SDS011;36740;48.698;11.472;2023-09-12T12:39:16;10.60;;;5.63;;
50769;SDS011;36740;48.698;11.472;2023-09-12T12:41:42;12.20;;;6.03;;
50769;SDS011;36740;48.698;11.472;2023-09-12T12:44:08;9.77;;;5.53;;
50769;SDS011;36740;48.698;11.472;2023-09-12T12:46:34;9.45;;;5.85;;
50769;SDS011;36740;48.698;11.472;2023-09-12T12:48:59;9.45;;;5.25;;
50769;SDS011;36740;48.698;11.472;2023-09-12T12:51:25;9.25;;;5.32;;
50769;SDS011;36740;48.698;11.472;2023-09-12T12:53:53;11.82;;;5.57;;
50769;SDS011;36740;48.698;11.472;2023-09-12T12:56:21;10.23;;;5.13;;
50769;SDS011;36740;48.698;11.472;2023-09-12T12:59:00;20.48;;;6.47;;
50769;SDS011;36740;48.698;11.472;2023-09-12T13:01:28;8.88;;;5.60;;
50769;SDS011;36740;48.698;11.472;2023-09-12T13:03:54;10.18;;;5.20;;
50769;SDS011;36740;48.698;11.472;2023-09-12T13:06:21;11.25;;;5.60;;
50769;SDS011;36740;48.698;11.472;2023-09-12T13:08:47;8.57;;;4.70;;
50769;SDS011;36740;48.698;11.472;2023-09-12T13:11:18;10.27;;;5.28;;
50769;SDS011;36740;48.698;11.472;2023-09-12T13:13:45;7.57;;;4.22;;
50769;SDS011;36740;48.698;11.472;2023-09-12T13:16:12;9.65;;;6.40;;
50769;SDS011;36740;48.698;11.472;2023-09-12T13:18:38;15.52;;;4.85;;
50769;SDS011;36740;48.698;11.472;2023-09-12T13:21:04;8.57;;;4.90;;
50769;SDS011;36740;48.698;11.472;2023-09-12T13:23:29;7.72;;;4.65;;
50769;SDS011;36740;48.698;11.472;2023-09-12T13:25:55;8.75;;;5.15;;
50769;SDS011;36740;48.698;11.472;2023-09-12T13:28:20;10.70;;;5.47;;
50769;SDS011;36740;48.698;11.472;2023-09-12T13:30:46;12.48;;;6.63;;
50769;SDS011;36740;48.698;11.472;2023-09-12T13:33:11;13.55;;;5.53;;
50769;SDS011;36740;48.698;11.472;2023-09-12T13:35:37;8.07;;;5.40;;
50769;SDS011;36740;48.698;11.472;2023-09-12T13:38:02;9.55;;;5.40;;
50769;SDS011;36740;48.698;11.472;2023-09-12T13:40:34;8.85;;;5.72;;
50769;SDS011;36740;48.698;11.472;2023-09-12T13:42:59;9.98;;;5.55;;
50769;SDS011;36740;48.698;11.472;2023-09-12T13:45:24;13.37;;;5.50;;
50769;SDS011;36740;48.698;11.472;2023-09-12T13:47:49;7.40;;;4.27;;
50769;SDS011;36740;48.698;11.472;2023-09-12T13:50:15;14.13;;;6.30;;
50769;SDS011;36740;48.698;11.472;2023-09-12T13:52:40;13.82;;;6.10;;
50769;SDS011;36740;48.698;11.472;2023-09-12T13:55:06;10.30;;;4.90;;
50769;SDS011;36740;48.698;11.472;2023-09-12T13:57:31;9.02;;;5.03;;
50769;SDS011;36740;48.698;11.472;2023-09-12T13:59:56;8.00;;;3.90;;
50769;SDS011;36740;48.698;11.472;2023-09-12T14:02:22;6.50;;;4.30;;
50769;SDS011;36740;48.698;11.472;2023-09-12T14:04:47;12.27;;;6.70;;
50769;SDS011;36740;48.698;11.472;2023-09-12T14:07:12;13.18;;;5.68;;
50769;SDS011;36740;48.698;11.472;2023-09-12T14:09:38;9.87;;;5.07;;
50769;SDS011;36740;48.698;11.472;2023-09-12T14:12:04;8.98;;;5.47;;
50769;SDS011;36740;48.698;11.472;2023-09-12T14:14:31;8.25;;;4.50;;
50769;SDS011;36740;48.698;11.472;2023-09-12T14:16:56;17.67;;;5.53;;
50769;SDS011;36740;48.698;11.472;2023-09-12T14:19:21;12.07;;;6.50;;
50769;SDS011;36740;48.698;11.472;2023-09-12T14:21:46;11.23;;;5.73;;
50769;SDS011;36740;48.698;11.472;2023-09-12T14:24:12;9.55;;;6.15;;
50769;SDS011;36740;48.698;11.472;2023-09-12T14:26:37;13.85;;;5.50;;
50769;SDS011;36740;48.698;11.472;2023-09-12T14:29:02;9.63;;;4.93;;
50769;SDS011;36740;48.698;11.472;2023-09-12T14:31:28;13.00;;;5.57;;
50769;SDS011;36740;48.698;11.472;2023-09-12T14:33:53;12.35;;;6.65;;
50769;SDS011;36740;48.698;11.472;2023-09-12T14:36:19;10.13;;;5.50;;
50769;SDS011;36740;48.698;11.472;2023-09-12T14:38:44;12.38;;;5.88;;
50769;SDS011;36740;48.698;11.472;2023-09-12T14:41:12;8.35;;;4.15;;
50769;SDS011;36740;48.698;11.472;2023-09-12T14:43:37;7.20;;;4.88;;
50769;SDS011;36740;48.698;11.472;2023-09-12T14:46:02;11.00;;;5.73;;